Decoded Metar for KHIB (HIBBING in MN, USA) (IATA:HIB) | Meteo·Mobile Aviation Weather
aviador You're here:

KHIB Decoded Metar

HIBBING in MN, USA
Report Time2019-01-17 22:53:00
UTC Time2019-01-17 23:46:36
Flight Rules vfr VFR
Wind290° at 05 kt
W.Decomp.*RWY 31: 4.6 kt HW 1.9 kt LCW
RWY 22: 1.9 kt HW 4.6 kt RCW
W.Rank290° ranks 8
Current wind is below 290° avg. (8.1)
Visibility9999 m
Phenomena:N/A
Clouds:N/A
Expected CloudBase > 3,600 ft AGL from Temp-Dew spread
CeilingNone
Temp-13°C (ISA -25)
Dew Point-22°C (47% RH)
AAT-18.5°C
QNH1017 hPa
Density Alt-1,942 ft
Elevation1,352 ft
Report Wrong Elevation
Raw Report
KHIB 172253Z AUTO 29005KT 10SM CLR M13/M22 A3004 RMK AO2 SLP212
T11331217=

Extra information for KHIB:More info

Metar Taf Metar & Taf Last 4 Metars F.Rules Stats Wind Profile Meteogram Temp Stats Airport Information Weather charts Add Link Nearby VenuesMetar ALERT Operation Metar Decoded Social comments

AIRNAV info for KHIB